createdAt,value
2023-05-19T00:00:21.468Z,8.90
2023-05-19T00:03:24.725Z,8.86
2023-05-19T00:06:31.779Z,8.93
2023-05-19T00:09:34.820Z,8.87
2023-05-19T00:12:37.734Z,8.89
2023-05-19T00:15:40.530Z,8.86
2023-05-19T00:18:43.527Z,8.88
2023-05-19T00:21:46.076Z,8.84
2023-05-19T00:24:49.235Z,8.89
2023-05-19T00:27:51.987Z,8.85
2023-05-19T00:30:55.055Z,8.88
2023-05-19T00:33:58.106Z,8.88
2023-05-19T00:37:01.106Z,8.88
2023-05-19T00:40:06.183Z,8.86
2023-05-19T00:43:14.062Z,8.89
2023-05-19T00:46:16.599Z,8.87
2023-05-19T00:49:19.487Z,8.94
2023-05-19T00:52:22.097Z,8.87
2023-05-19T00:55:31.478Z,8.86
2023-05-19T00:58:36.233Z,8.84
2023-05-19T01:01:39.450Z,8.86
2023-05-19T01:04:44.246Z,8.82
2023-05-19T01:07:47.518Z,8.82
2023-05-19T01:10:50.261Z,8.84
2023-05-19T01:13:52.993Z,8.88
2023-05-19T01:17:05.643Z,8.88
2023-05-19T01:20:25.957Z,8.87
2023-05-19T01:23:50.971Z,8.86
2023-05-19T01:27:15.175Z,8.83
2023-05-19T01:30:40.717Z,8.85
2023-05-19T01:33:43.959Z,8.82
2023-05-19T01:36:50.106Z,8.94
2023-05-19T01:39:53.419Z,8.90
2023-05-19T01:42:58.571Z,8.92
2023-05-19T01:46:02.507Z,8.89
2023-05-19T01:49:06.439Z,8.89
2023-05-19T01:52:09.205Z,8.87
2023-05-19T01:55:11.676Z,8.84
2023-05-19T01:58:47.625Z,8.85
2023-05-19T02:01:54.137Z,8.91
2023-05-19T02:05:05.498Z,8.95
2023-05-19T02:08:29.711Z,8.97
2023-05-19T02:11:38.018Z,8.90
2023-05-19T02:14:49.888Z,9.02
2023-05-19T02:17:55.670Z,8.98
2023-05-19T02:20:58.413Z,8.96
2023-05-19T02:24:01.022Z,8.96
2023-05-19T02:27:03.816Z,8.90
2023-05-19T02:30:07.316Z,8.83
2023-05-19T02:33:11.511Z,8.81
2023-05-19T02:36:14.816Z,8.76
2023-05-19T02:39:17.894Z,8.72
2023-05-19T02:42:20.873Z,8.70
2023-05-19T02:45:24.334Z,8.68
2023-05-19T02:48:27.276Z,8.70
2023-05-19T02:51:29.789Z,8.69
2023-05-19T02:54:33.767Z,8.61
2023-05-19T02:57:36.501Z,8.68
2023-05-19T03:00:39.431Z,8.67
2023-05-19T03:03:42.479Z,8.57
2023-05-19T03:06:45.421Z,8.57
2023-05-19T03:09:48.220Z,8.65
2023-05-19T03:12:50.920Z,8.63
2023-05-19T03:15:53.560Z,8.64
2023-05-19T03:18:56.385Z,8.67
2023-05-19T03:21:59.354Z,8.78
2023-05-19T03:25:02.487Z,8.95
2023-05-19T03:28:05.613Z,8.84
2023-05-19T03:31:08.409Z,8.86
2023-05-19T03:34:14.304Z,8.85
2023-05-19T03:37:16.943Z,8.76
2023-05-19T03:40:19.987Z,8.77
2023-05-19T03:43:24.005Z,8.81
2023-05-19T03:46:33.937Z,8.88
2023-05-19T03:49:53.489Z,8.94
2023-05-19T03:53:02.143Z,9.03
2023-05-19T03:56:08.969Z,9.11
2023-05-19T03:59:12.405Z,9.31
2023-05-19T04:02:16.499Z,9.38
2023-05-19T04:05:19.784Z,9.43
2023-05-19T04:08:22.230Z,9.45
2023-05-19T04:11:24.974Z,9.49
2023-05-19T04:14:27.509Z,9.49
2023-05-19T04:17:30.215Z,9.65
2023-05-19T04:20:33.027Z,9.75
2023-05-19T04:23:35.569Z,9.79
2023-05-19T04:26:38.544Z,9.98
2023-05-19T04:29:41.985Z,10.17
2023-05-19T04:32:44.841Z,10.30
2023-05-19T04:35:47.658Z,10.39
2023-05-19T04:38:54.826Z,10.47
2023-05-19T04:42:00.152Z,10.59
2023-05-19T04:45:05.428Z,10.69
2023-05-19T04:48:09.538Z,10.79
2023-05-19T04:51:14.331Z,10.92
2023-05-19T04:54:17.355Z,11.07
2023-05-19T04:57:20.109Z,11.22
2023-05-19T05:00:22.806Z,11.27
2023-05-19T05:03:31.075Z,11.41
2023-05-19T05:06:34.130Z,11.51
2023-05-19T05:09:36.761Z,11.71
2023-05-19T05:12:39.659Z,11.86
2023-05-19T05:15:42.340Z,11.96
2023-05-19T05:18:47.009Z,12.02
2023-05-19T05:21:50.087Z,12.01
2023-05-19T05:24:52.901Z,11.94
2023-05-19T05:27:55.863Z,12.01
2023-05-19T05:30:59.302Z,12.11
2023-05-19T05:34:02.056Z,12.40
2023-05-19T05:37:07.462Z,12.64
2023-05-19T05:40:11.742Z,12.90
2023-05-19T05:43:15.066Z,13.13
2023-05-19T05:46:23.894Z,13.32
2023-05-19T05:49:26.777Z,13.49
2023-05-19T05:52:32.475Z,13.69
2023-05-19T05:55:36.503Z,13.78
2023-05-19T05:58:40.872Z,13.86
2023-05-19T06:01:44.007Z,14.00
2023-05-19T06:04:47.231Z,14.36
2023-05-19T06:07:49.992Z,14.53
2023-05-19T06:10:58.770Z,14.63
2023-05-19T06:14:02.516Z,14.72
2023-05-19T06:17:25.511Z,15.19
2023-05-19T06:20:28.209Z,15.47
2023-05-19T06:23:31.521Z,15.68
2023-05-19T06:26:34.211Z,15.76
2023-05-19T06:29:36.944Z,15.94
2023-05-19T06:32:42.289Z,15.73
2023-05-19T06:35:44.866Z,16.72
2023-05-19T06:38:47.499Z,17.29
2023-05-19T06:41:50.032Z,17.42
2023-05-19T06:45:12.790Z,17.72
2023-05-19T06:48:15.648Z,17.51
2023-05-19T06:51:21.846Z,18.18
2023-05-19T06:54:28.797Z,18.41
2023-05-19T06:57:33.127Z,18.83
2023-05-19T07:00:37.558Z,19.26
2023-05-19T07:03:41.900Z,19.56
2023-05-19T07:06:46.492Z,19.73
2023-05-19T07:09:49.351Z,19.99
2023-05-19T07:12:51.940Z,20.21
2023-05-19T07:15:57.916Z,20.09
2023-05-19T07:19:03.222Z,20.16
2023-05-19T07:22:05.885Z,19.87
2023-05-19T07:25:08.878Z,20.68
2023-05-19T07:28:11.552Z,21.15
2023-05-19T07:31:14.152Z,21.21
2023-05-19T07:34:17.952Z,21.56
2023-05-19T07:37:20.529Z,22.09
2023-05-19T07:40:23.243Z,22.42
2023-05-19T07:43:25.769Z,22.80
2023-05-19T07:46:28.496Z,22.84
2023-05-19T07:49:31.156Z,22.97
2023-05-19T07:52:33.770Z,23.07
2023-05-19T07:55:36.305Z,22.65
2023-05-19T07:58:38.865Z,23.16
2023-05-19T08:01:41.422Z,23.45
2023-05-19T08:04:44.046Z,23.37
2023-05-19T08:07:47.179Z,23.63
2023-05-19T08:10:49.923Z,23.99
2023-05-19T08:13:52.424Z,24.11
2023-05-19T08:16:55.099Z,24.51
2023-05-19T08:19:57.568Z,24.50
2023-05-19T08:23:00.362Z,24.37
2023-05-19T08:26:03.150Z,24.57
2023-05-19T08:29:05.699Z,24.15
2023-05-19T08:32:09.795Z,24.62
2023-05-19T08:35:14.234Z,25.07
2023-05-19T08:38:16.685Z,25.23
2023-05-19T08:41:19.886Z,25.17
2023-05-19T08:44:45.665Z,25.55
2023-05-19T08:47:51.000Z,25.01
2023-05-19T08:51:09.488Z,25.88
2023-05-19T08:54:16.113Z,25.79
2023-05-19T08:57:19.170Z,25.19
2023-05-19T09:00:22.745Z,25.70
2023-05-19T09:03:26.737Z,25.83
2023-05-19T09:06:33.413Z,25.88
2023-05-19T09:09:36.023Z,26.42
2023-05-19T09:12:38.590Z,25.31
2023-05-19T09:15:43.021Z,25.06
2023-05-19T09:18:57.201Z,25.18
2023-05-19T09:22:01.303Z,25.86
2023-05-19T09:25:04.044Z,26.60
2023-05-19T09:28:08.874Z,26.18
2023-05-19T09:31:11.690Z,27.03
2023-05-19T09:34:14.231Z,26.61
2023-05-19T09:37:16.915Z,26.69
2023-05-19T09:40:19.913Z,26.82
2023-05-19T09:43:22.876Z,27.27
2023-05-19T09:46:29.866Z,27.36
2023-05-19T09:49:33.076Z,27.53
2023-05-19T09:52:39.501Z,26.00
2023-05-19T09:55:43.001Z,26.72
2023-05-19T09:58:52.566Z,26.86
2023-05-19T10:01:57.000Z,27.09
2023-05-19T10:05:01.300Z,27.49
2023-05-19T10:08:07.278Z,27.56
2023-05-19T10:11:12.090Z,27.98
2023-05-19T10:14:15.936Z,27.92
2023-05-19T10:17:18.874Z,27.80
2023-05-19T10:20:21.672Z,27.09
2023-05-19T10:23:24.258Z,27.05
2023-05-19T10:26:28.437Z,27.79
2023-05-19T10:29:35.398Z,27.56
2023-05-19T10:32:40.358Z,27.68
2023-05-19T10:36:09.809Z,28.38
2023-05-19T10:39:24.981Z,28.74
2023-05-19T10:42:57.318Z,28.11
2023-05-19T10:46:00.890Z,28.92
2023-05-19T10:49:03.487Z,28.87
2023-05-19T10:52:21.604Z,28.27
2023-05-19T10:55:50.019Z,28.35
2023-05-19T10:58:53.040Z,28.71
2023-05-19T11:01:55.725Z,28.14
2023-05-19T11:05:09.817Z,28.46
2023-05-19T11:08:13.011Z,27.95
2023-05-19T11:11:16.902Z,28.82
2023-05-19T11:14:26.675Z,28.49
2023-05-19T11:17:29.581Z,28.64
2023-05-19T11:20:39.670Z,28.97
2023-05-19T11:23:46.711Z,29.25
2023-05-19T11:26:49.471Z,29.23
2023-05-19T11:29:53.014Z,29.10
2023-05-19T11:32:56.725Z,29.26
2023-05-19T11:35:59.557Z,29.23
2023-05-19T11:39:02.732Z,29.22
2023-05-19T11:42:06.917Z,28.97
2023-05-19T11:45:10.526Z,29.47
2023-05-19T11:48:13.916Z,28.43
2023-05-19T11:51:17.315Z,28.89
2023-05-19T11:54:20.146Z,28.82
2023-05-19T11:57:22.732Z,29.21
2023-05-19T12:00:30.322Z,28.81
2023-05-19T12:03:33.186Z,28.61
2023-05-19T12:06:37.120Z,28.77
2023-05-19T12:09:40.347Z,29.30
2023-05-19T12:12:45.255Z,29.05
2023-05-19T12:15:47.783Z,28.69
2023-05-19T12:18:50.631Z,28.39
2023-05-19T12:21:54.030Z,28.74
2023-05-19T12:24:56.942Z,29.34
2023-05-19T12:28:05.734Z,29.34
2023-05-19T12:31:08.353Z,28.93
2023-05-19T12:34:13.225Z,29.09
2023-05-19T12:37:15.820Z,29.19
2023-05-19T12:40:18.451Z,29.31
2023-05-19T12:43:22.928Z,29.29
2023-05-19T12:46:25.515Z,29.20
2023-05-19T12:49:28.137Z,29.10
2023-05-19T12:52:35.516Z,29.24
2023-05-19T12:55:43.536Z,29.01
2023-05-19T12:58:46.209Z,28.53
2023-05-19T13:01:58.159Z,28.29
2023-05-19T13:05:00.795Z,27.86
2023-05-19T13:08:08.894Z,28.10
2023-05-19T13:11:11.450Z,28.30
2023-05-19T13:14:15.824Z,28.34
2023-05-19T13:17:19.469Z,27.89
2023-05-19T13:20:22.486Z,28.30
2023-05-19T13:23:26.306Z,28.34
2023-05-19T13:26:28.877Z,28.49
2023-05-19T13:29:31.403Z,27.60
2023-05-19T13:32:34.270Z,27.89
2023-05-19T13:35:39.840Z,27.90
2023-05-19T13:38:42.695Z,27.47
2023-05-19T13:41:45.271Z,27.37
2023-05-19T13:44:47.950Z,27.73
2023-05-19T13:47:50.486Z,27.97
2023-05-19T13:50:55.590Z,27.71
2023-05-19T13:53:58.115Z,27.50
2023-05-19T13:57:01.350Z,27.28
2023-05-19T14:00:05.856Z,27.40
2023-05-19T14:03:16.298Z,27.63
2023-05-19T14:06:18.884Z,27.72
2023-05-19T14:09:21.754Z,27.80
2023-05-19T14:12:34.779Z,27.27
2023-05-19T14:15:42.417Z,27.27
2023-05-19T14:18:45.048Z,27.45
2023-05-19T14:21:47.959Z,27.00
2023-05-19T14:24:50.463Z,26.77
2023-05-19T14:27:53.156Z,26.88
2023-05-19T14:30:55.739Z,26.67
2023-05-19T14:33:58.330Z,26.88
2023-05-19T14:37:02.204Z,27.06
2023-05-19T14:40:05.170Z,26.59
2023-05-19T14:43:07.988Z,26.86
2023-05-19T14:46:10.867Z,26.91
2023-05-19T14:49:13.400Z,26.94
2023-05-19T14:52:16.104Z,26.80
2023-05-19T14:55:18.572Z,26.62
2023-05-19T15:01:29.211Z,26.75
2023-05-19T15:04:32.111Z,26.75
2023-05-19T15:07:34.651Z,26.95
2023-05-19T15:10:37.246Z,27.01
2023-05-19T15:13:39.887Z,27.08
2023-05-19T15:16:42.692Z,27.14
2023-05-19T15:19:45.272Z,26.88
2023-05-19T15:22:48.828Z,26.47
2023-05-19T15:25:53.060Z,26.19
2023-05-19T15:28:55.851Z,26.09
2023-05-19T15:31:58.506Z,25.58
2023-05-19T15:35:01.253Z,25.73
2023-05-19T15:38:06.361Z,26.04
2023-05-19T15:41:09.354Z,26.35
2023-05-19T15:44:12.051Z,26.41
2023-05-19T15:47:14.521Z,26.13
2023-05-19T15:50:17.471Z,25.74
2023-05-19T15:53:20.367Z,25.70
2023-05-19T15:56:22.925Z,25.63
2023-05-19T15:59:25.747Z,25.49
2023-05-19T16:02:28.439Z,25.52
2023-05-19T16:05:30.930Z,25.37
2023-05-19T16:08:33.690Z,25.44
2023-05-19T16:11:36.225Z,25.49
2023-05-19T16:14:38.823Z,25.64
2023-05-19T16:17:41.436Z,25.72
2023-05-19T16:20:44.211Z,25.55
2023-05-19T16:23:46.918Z,25.58
2023-05-19T16:26:49.609Z,25.01
2023-05-19T16:29:52.129Z,24.92
2023-05-19T16:32:54.874Z,24.72
2023-05-19T16:35:58.692Z,24.36
2023-05-19T16:39:01.457Z,24.28
2023-05-19T16:42:04.761Z,24.14
2023-05-19T16:45:08.202Z,23.99
2023-05-19T16:48:11.361Z,23.80
2023-05-19T16:51:14.082Z,23.72
2023-05-19T16:54:16.885Z,23.55
2023-05-19T16:57:19.424Z,23.52
2023-05-19T17:00:22.220Z,23.16
2023-05-19T17:03:24.899Z,23.14
2023-05-19T17:06:27.850Z,23.07
2023-05-19T17:09:30.494Z,22.97
2023-05-19T17:12:33.087Z,22.79
2023-05-19T17:15:35.660Z,22.60
2023-05-19T17:18:38.366Z,22.39
2023-05-19T17:21:40.980Z,22.17
2023-05-19T17:24:43.802Z,22.21
2023-05-19T17:27:46.358Z,21.94
2023-05-19T17:30:48.981Z,21.85
2023-05-19T17:33:51.457Z,21.63
2023-05-19T17:36:54.158Z,21.52
2023-05-19T17:39:56.822Z,21.34
2023-05-19T17:42:59.314Z,21.22
2023-05-19T17:46:01.989Z,21.18
2023-05-19T17:49:04.935Z,21.14
2023-05-19T17:52:08.197Z,20.88
2023-05-19T17:55:12.047Z,20.93
2023-05-19T17:58:14.724Z,20.89
2023-05-19T18:01:18.030Z,20.59
2023-05-19T18:04:21.114Z,20.45
2023-05-19T18:07:26.397Z,20.41
2023-05-19T18:10:29.953Z,20.22
2023-05-19T18:13:32.598Z,20.05
2023-05-19T18:16:35.261Z,19.99
2023-05-19T18:19:37.833Z,19.83
2023-05-19T18:22:40.790Z,19.69
2023-05-19T18:25:49.954Z,19.56
2023-05-19T18:28:52.475Z,19.61
2023-05-19T18:31:55.351Z,19.54
2023-05-19T18:34:57.837Z,19.36
2023-05-19T18:38:00.972Z,19.31
2023-05-19T18:41:03.448Z,19.27
2023-05-19T18:44:08.193Z,19.22
2023-05-19T18:47:11.055Z,19.29
2023-05-19T18:50:14.480Z,19.30
2023-05-19T18:53:17.210Z,19.18
2023-05-19T18:56:23.960Z,19.08
2023-05-19T18:59:26.446Z,19.15
2023-05-19T19:02:29.195Z,19.21
2023-05-19T19:05:31.800Z,18.96
2023-05-19T19:08:34.460Z,18.73
2023-05-19T19:11:36.965Z,18.62
2023-05-19T19:14:39.611Z,18.63
2023-05-19T19:17:42.364Z,18.63
2023-05-19T19:20:45.201Z,18.58
2023-05-19T19:23:47.743Z,18.64
2023-05-19T19:26:50.888Z,18.70
2023-05-19T19:29:54.050Z,18.54
2023-05-19T19:32:57.126Z,18.35
2023-05-19T19:35:59.680Z,18.34
2023-05-19T19:39:02.405Z,18.34
2023-05-19T19:42:05.194Z,18.26
2023-05-19T19:45:08.298Z,18.20
2023-05-19T19:48:12.185Z,17.94
2023-05-19T19:51:14.874Z,18.00
2023-05-19T19:54:18.442Z,17.83
2023-05-19T19:57:21.200Z,17.87
2023-05-19T20:00:23.775Z,17.60
2023-05-19T20:03:27.277Z,17.66
2023-05-19T20:06:29.824Z,17.64
2023-05-19T20:09:32.700Z,17.65
2023-05-19T20:12:35.329Z,17.52
2023-05-19T20:15:39.159Z,17.40
2023-05-19T20:18:41.995Z,17.40
2023-05-19T20:21:44.632Z,17.33
2023-05-19T20:24:47.313Z,17.25
2023-05-19T20:27:50.387Z,17.05
2023-05-19T20:30:53.018Z,16.89
2023-05-19T20:33:55.880Z,16.79
2023-05-19T20:36:58.347Z,16.66
2023-05-19T20:40:01.109Z,16.57
2023-05-19T20:43:03.713Z,16.46
2023-05-19T20:46:06.487Z,16.42
2023-05-19T20:49:09.111Z,16.35
2023-05-19T20:52:11.890Z,16.41
2023-05-19T20:55:14.654Z,16.38
2023-05-19T20:58:17.410Z,16.23
2023-05-19T21:01:19.930Z,16.25
2023-05-19T21:04:22.929Z,16.17
2023-05-19T21:07:25.540Z,16.20
2023-05-19T21:10:28.389Z,16.13
2023-05-19T21:13:31.572Z,15.99
2023-05-19T21:16:34.450Z,15.91
2023-05-19T21:19:37.397Z,15.83
2023-05-19T21:22:41.132Z,15.72
2023-05-19T21:25:45.379Z,15.66
2023-05-19T21:28:48.676Z,15.68
2023-05-19T21:31:52.624Z,15.55
2023-05-19T21:34:55.794Z,15.53
2023-05-19T21:38:00.580Z,15.55
2023-05-19T21:41:06.738Z,15.48
2023-05-19T21:44:09.162Z,15.39
2023-05-19T21:47:11.769Z,15.26
2023-05-19T21:50:17.420Z,15.22
2023-05-19T21:53:20.479Z,15.26
2023-05-19T21:56:22.973Z,15.26
2023-05-19T21:59:26.538Z,15.24
2023-05-19T22:02:29.016Z,15.26
2023-05-19T22:05:32.506Z,15.15
2023-05-19T22:08:34.992Z,15.20
2023-05-19T22:11:37.910Z,15.15
2023-05-19T22:14:41.267Z,15.06
2023-05-19T22:17:44.064Z,14.97
2023-05-19T22:20:46.886Z,14.66
2023-05-19T22:23:49.595Z,14.62
2023-05-19T22:26:52.246Z,14.46
2023-05-19T22:29:55.114Z,14.19
2023-05-19T22:32:57.861Z,14.02
2023-05-19T22:36:00.538Z,14.06
2023-05-19T22:39:03.130Z,14.10
2023-05-19T22:42:06.213Z,14.07
2023-05-19T22:45:09.380Z,14.01
2023-05-19T22:48:12.056Z,14.03
2023-05-19T22:51:14.697Z,14.13
2023-05-19T22:54:17.424Z,14.12
2023-05-19T22:57:20.207Z,14.10
2023-05-19T23:00:22.895Z,14.15
2023-05-19T23:03:25.538Z,14.18
2023-05-19T23:06:28.591Z,14.20
2023-05-19T23:09:31.107Z,14.14
2023-05-19T23:12:34.139Z,13.97
2023-05-19T23:15:36.707Z,13.89
2023-05-19T23:18:39.326Z,13.84
2023-05-19T23:21:41.993Z,13.73
2023-05-19T23:24:44.702Z,13.61
2023-05-19T23:27:47.350Z,13.39
2023-05-19T23:30:53.778Z,13.22
2023-05-19T23:33:56.437Z,13.23
2023-05-19T23:36:59.397Z,13.34
2023-05-19T23:40:01.852Z,13.12
2023-05-19T23:43:04.468Z,13.09
2023-05-19T23:46:07.191Z,13.03
2023-05-19T23:49:09.714Z,13.02
2023-05-19T23:52:13.924Z,13.11
2023-05-19T23:55:16.699Z,13.20
2023-05-19T23:58:19.444Z,12.93
